BTK7066 WIHH-WARR
Flight info
| Callsign | BTK7066 |
|---|---|
| Flight time | 1h 1m |
| Altitude | 35000 |
| Route | CA T3 BA |
| Aircraft | B738/M-SDE2E3FGHIRWXY/LB1 |
Departure
| Time | 2026-05-04 04:11 |
|---|---|
| Airport | Halim Perdanakusuma International Airport (WIHH) |
Arrival
| Time | 2026-05-04 05:13 |
|---|---|
| Airport | Juanda International Airport (WARR) |
| Time | Latitude | Longitude | Altitude | Speed | Heading |
|---|---|---|---|---|---|
| 2026-05-04 03:52 | -6.26600 | 106.88638 | 94 ft | 0 kts | 334° |
| 2026-05-04 04:02 | -6.26614 | 106.88646 | 94 ft | 4 kts | 324° |
| 2026-05-04 04:02 | -6.26632 | 106.88664 | 94 ft | 4 kts | 291° |
| 2026-05-04 04:02 | -6.26635 | 106.88689 | 93 ft | 4 kts | 252° |
| 2026-05-04 04:03 | -6.26633 | 106.88696 | 93 ft | 1 kts | 245° |
| 2026-05-04 04:06 | -6.26649 | 106.88660 | 93 ft | 8 kts | 245° |
| 2026-05-04 04:06 | -6.26675 | 106.88604 | 93 ft | 9 kts | 245° |
| 2026-05-04 04:07 | -6.26702 | 106.88546 | 93 ft | 9 kts | 245° |
| 2026-05-04 04:07 | -6.26730 | 106.88491 | 93 ft | 9 kts | 229° |
| 2026-05-04 04:07 | -6.26786 | 106.88491 | 94 ft | 8 kts | 157° |
| 2026-05-04 04:07 | -6.26846 | 106.88520 | 93 ft | 11 kts | 154° |
| 2026-05-04 04:08 | -6.26926 | 106.88526 | 91 ft | 12 kts | 218° |
| 2026-05-04 04:08 | -6.26969 | 106.88447 | 91 ft | 14 kts | 244° |
| 2026-05-04 04:08 | -6.27011 | 106.88357 | 91 ft | 14 kts | 245° |
| 2026-05-04 04:08 | -6.27053 | 106.88264 | 92 ft | 16 kts | 245° |
| 2026-05-04 04:09 | -6.27102 | 106.88157 | 93 ft | 17 kts | 245° |
| 2026-05-04 04:09 | -6.27144 | 106.88049 | 93 ft | 16 kts | 260° |
| 2026-05-04 04:09 | -6.27135 | 106.87949 | 94 ft | 11 kts | 268° |
| 2026-05-04 04:09 | -6.27174 | 106.87890 | 96 ft | 9 kts | 207° |
| 2026-05-04 04:10 | -6.27216 | 106.87905 | 95 ft | 6 kts | 85° |
| 2026-05-04 04:10 | -6.27212 | 106.87915 | 95 ft | 0 kts | 65° |
| 2026-05-04 04:10 | -6.27183 | 106.87979 | 96 ft | 36 kts | 65° |
| 2026-05-04 04:11 | -6.26975 | 106.88432 | 93 ft | 106 kts | 65° |
| 2026-05-04 04:11 | -6.26583 | 106.89284 | 97 ft | 161 kts | 66° |
| 2026-05-04 04:11 | -6.26120 | 106.90367 | 611 ft | 170 kts | 68° |
| 2026-05-04 04:11 | -6.25706 | 106.91467 | 1398 ft | 167 kts | 80° |
| 2026-05-04 04:12 | -6.25777 | 106.92629 | 1958 ft | 173 kts | 114° |
| 2026-05-04 04:12 | -6.26416 | 106.93657 | 2572 ft | 174 kts | 125° |
| 2026-05-04 04:12 | -6.27086 | 106.94686 | 3164 ft | 179 kts | 121° |
| 2026-05-04 04:12 | -6.27752 | 106.95790 | 3668 ft | 191 kts | 121° |
| 2026-05-04 04:13 | -6.28466 | 106.96976 | 4038 ft | 205 kts | 120° |
| 2026-05-04 04:13 | -6.29224 | 106.98253 | 4294 ft | 220 kts | 120° |
| 2026-05-04 04:13 | -6.30048 | 106.99669 | 4229 ft | 253 kts | 120° |
| 2026-05-04 04:13 | -6.30967 | 107.01246 | 4653 ft | 266 kts | 120° |
| 2026-05-04 04:14 | -6.31904 | 107.02857 | 5383 ft | 267 kts | 120° |
| 2026-05-04 04:14 | -6.32541 | 107.03952 | 5864 ft | 269 kts | 120° |
| 2026-05-04 04:14 | -6.33506 | 107.05577 | 6546 ft | 273 kts | 125° |
| 2026-05-04 04:14 | -6.34931 | 107.06841 | 7243 ft | 278 kts | 149° |
| 2026-05-04 04:15 | -6.36632 | 107.07720 | 7935 ft | 282 kts | 152° |
| 2026-05-04 04:15 | -6.38431 | 107.08611 | 8593 ft | 287 kts | 152° |
| 2026-05-04 04:15 | -6.40192 | 107.09510 | 9276 ft | 289 kts | 147° |
| 2026-05-04 04:15 | -6.41649 | 107.10923 | 9945 ft | 291 kts | 121° |
| 2026-05-04 04:16 | -6.42574 | 107.12724 | 10437 ft | 303 kts | 114° |
| 2026-05-04 04:16 | -6.43458 | 107.14734 | 10581 ft | 325 kts | 113° |
| 2026-05-04 04:16 | -6.44375 | 107.16887 | 10804 ft | 343 kts | 112° |
| 2026-05-04 04:16 | -6.45326 | 107.19117 | 11302 ft | 350 kts | 113° |
| 2026-05-04 04:17 | -6.46298 | 107.21372 | 11940 ft | 353 kts | 113° |
| 2026-05-04 04:17 | -6.47289 | 107.23650 | 12578 ft | 357 kts | 113° |
| 2026-05-04 04:17 | -6.48291 | 107.25941 | 13247 ft | 359 kts | 113° |
| 2026-05-04 04:17 | -6.49303 | 107.28249 | 13911 ft | 362 kts | 113° |
| 2026-05-04 04:18 | -6.50327 | 107.30579 | 14566 ft | 365 kts | 113° |
| 2026-05-04 04:18 | -6.51358 | 107.32924 | 15207 ft | 369 kts | 113° |
| 2026-05-04 04:18 | -6.52402 | 107.35296 | 15848 ft | 372 kts | 113° |
| 2026-05-04 04:18 | -6.53451 | 107.37682 | 16488 ft | 375 kts | 113° |
| 2026-05-04 04:19 | -6.54508 | 107.40086 | 17100 ft | 378 kts | 113° |
| 2026-05-04 04:19 | -6.55575 | 107.42514 | 17661 ft | 381 kts | 113° |
| 2026-05-04 04:19 | -6.56612 | 107.44977 | 18233 ft | 384 kts | 108° |
| 2026-05-04 04:19 | -6.57097 | 107.47620 | 18767 ft | 386 kts | 96° |
| 2026-05-04 04:20 | -6.57387 | 107.50311 | 19287 ft | 389 kts | 96° |
| 2026-05-04 04:20 | -6.57679 | 107.53035 | 19771 ft | 393 kts | 96° |
| 2026-05-04 04:20 | -6.57981 | 107.55774 | 20253 ft | 397 kts | 96° |
| 2026-05-04 04:20 | -6.58297 | 107.58543 | 20731 ft | 400 kts | 96° |
| 2026-05-04 04:21 | -6.58622 | 107.61328 | 21190 ft | 403 kts | 96° |
| 2026-05-04 04:21 | -6.58954 | 107.64133 | 21647 ft | 405 kts | 96° |
| 2026-05-04 04:21 | -6.59289 | 107.66954 | 22119 ft | 407 kts | 96° |
| 2026-05-04 04:21 | -6.59627 | 107.69786 | 22538 ft | 410 kts | 96° |
| 2026-05-04 04:22 | -6.59968 | 107.72642 | 22933 ft | 413 kts | 96° |
| 2026-05-04 04:22 | -6.60311 | 107.75517 | 23303 ft | 416 kts | 96° |
| 2026-05-04 04:22 | -6.60657 | 107.78412 | 23662 ft | 418 kts | 96° |
| 2026-05-04 04:22 | -6.61004 | 107.81332 | 24015 ft | 421 kts | 96° |
| 2026-05-04 04:23 | -6.61352 | 107.84264 | 24359 ft | 424 kts | 96° |
| 2026-05-04 04:23 | -6.61703 | 107.87214 | 24706 ft | 426 kts | 96° |
| 2026-05-04 04:23 | -6.62055 | 107.90175 | 25051 ft | 428 kts | 96° |
| 2026-05-04 04:23 | -6.62409 | 107.93159 | 25369 ft | 430 kts | 96° |
| 2026-05-04 04:24 | -6.62764 | 107.96153 | 25683 ft | 433 kts | 96° |
| 2026-05-04 04:24 | -6.63120 | 107.99167 | 25997 ft | 435 kts | 96° |
| 2026-05-04 04:24 | -6.63478 | 108.02194 | 26303 ft | 437 kts | 96° |
| 2026-05-04 04:24 | -6.63836 | 108.05234 | 26635 ft | 438 kts | 96° |
| 2026-05-04 04:25 | -6.64196 | 108.08282 | 26933 ft | 440 kts | 96° |
| 2026-05-04 04:25 | -6.64557 | 108.11350 | 27201 ft | 443 kts | 96° |
| 2026-05-04 04:25 | -6.64917 | 108.14396 | 27449 ft | 445 kts | 96° |
| 2026-05-04 04:25 | -6.65282 | 108.17491 | 27730 ft | 447 kts | 96° |
| 2026-05-04 04:26 | -6.65649 | 108.20607 | 27999 ft | 449 kts | 96° |
| 2026-05-04 04:26 | -6.66016 | 108.23732 | 28275 ft | 451 kts | 96° |
| 2026-05-04 04:26 | -6.66385 | 108.26868 | 28567 ft | 452 kts | 96° |
| 2026-05-04 04:26 | -6.66753 | 108.30005 | 28827 ft | 453 kts | 96° |
| 2026-05-04 04:27 | -6.67124 | 108.33161 | 29064 ft | 455 kts | 96° |
| 2026-05-04 04:27 | -6.67496 | 108.36327 | 29291 ft | 457 kts | 96° |
| 2026-05-04 04:27 | -6.67869 | 108.39511 | 29520 ft | 459 kts | 96° |
| 2026-05-04 04:27 | -6.68243 | 108.42702 | 29743 ft | 461 kts | 96° |
| 2026-05-04 04:28 | -6.68620 | 108.45912 | 29962 ft | 462 kts | 96° |
| 2026-05-04 04:28 | -6.68997 | 108.49127 | 30172 ft | 464 kts | 96° |
| 2026-05-04 04:28 | -6.69374 | 108.52350 | 30385 ft | 465 kts | 96° |
| 2026-05-04 04:28 | -6.69753 | 108.55585 | 30657 ft | 465 kts | 96° |
| 2026-05-04 04:29 | -6.70164 | 108.58805 | 30984 ft | 464 kts | 97° |
| 2026-05-04 04:29 | -6.70644 | 108.62016 | 31277 ft | 464 kts | 98° |
| 2026-05-04 04:29 | -6.71153 | 108.65222 | 31551 ft | 464 kts | 98° |
| 2026-05-04 04:29 | -6.71670 | 108.68426 | 31813 ft | 464 kts | 98° |
| 2026-05-04 04:30 | -6.72184 | 108.71633 | 32130 ft | 464 kts | 98° |
| 2026-05-04 04:30 | -6.72689 | 108.74831 | 32451 ft | 463 kts | 98° |
| 2026-05-04 04:30 | -6.73186 | 108.78023 | 32761 ft | 462 kts | 98° |
| 2026-05-04 04:30 | -6.73680 | 108.81213 | 33021 ft | 462 kts | 98° |
| 2026-05-04 04:31 | -6.74172 | 108.84411 | 33274 ft | 462 kts | 98° |
| 2026-05-04 04:31 | -6.74661 | 108.87606 | 33555 ft | 462 kts | 98° |
| 2026-05-04 04:31 | -6.75150 | 108.90797 | 33859 ft | 461 kts | 98° |
| 2026-05-04 04:31 | -6.75638 | 108.93987 | 34141 ft | 461 kts | 98° |
| 2026-05-04 04:32 | -6.76125 | 108.97171 | 34422 ft | 461 kts | 98° |
| 2026-05-04 04:32 | -6.76613 | 109.00356 | 34716 ft | 460 kts | 98° |
| 2026-05-04 04:32 | -6.77098 | 109.03534 | 34914 ft | 461 kts | 98° |
| 2026-05-04 04:32 | -6.77584 | 109.06733 | 34892 ft | 463 kts | 97° |
| 2026-05-04 04:33 | -6.78547 | 109.13118 | 34889 ft | 459 kts | 98° |
| 2026-05-04 04:33 | -6.79518 | 109.19422 | 34891 ft | 456 kts | 98° |
| 2026-05-04 04:34 | -6.80484 | 109.25713 | 34897 ft | 454 kts | 98° |
| 2026-05-04 04:34 | -6.81437 | 109.31954 | 34894 ft | 454 kts | 98° |
| 2026-05-04 04:35 | -6.82393 | 109.38237 | 34892 ft | 455 kts | 98° |
| 2026-05-04 04:35 | -6.83352 | 109.44537 | 34890 ft | 456 kts | 98° |
| 2026-05-04 04:36 | -6.84312 | 109.50857 | 34893 ft | 458 kts | 98° |
| 2026-05-04 04:36 | -6.85276 | 109.57203 | 34891 ft | 460 kts | 98° |
| 2026-05-04 04:37 | -6.87208 | 109.69946 | 34890 ft | 462 kts | 98° |
| 2026-05-04 04:38 | -6.88177 | 109.76346 | 34887 ft | 463 kts | 98° |
| 2026-05-04 04:38 | -6.89144 | 109.82741 | 34886 ft | 462 kts | 98° |
| 2026-05-04 04:39 | -6.90107 | 109.89104 | 34881 ft | 458 kts | 98° |
| 2026-05-04 04:39 | -6.91062 | 109.95430 | 34885 ft | 456 kts | 98° |
| 2026-05-04 04:40 | -6.92014 | 110.01728 | 34888 ft | 455 kts | 98° |
| 2026-05-04 04:40 | -6.92961 | 110.08017 | 34887 ft | 454 kts | 98° |
| 2026-05-04 04:41 | -6.93908 | 110.14311 | 34891 ft | 455 kts | 98° |
| 2026-05-04 04:41 | -6.94858 | 110.20620 | 34891 ft | 457 kts | 98° |
| 2026-05-04 04:42 | -6.95809 | 110.26951 | 34893 ft | 459 kts | 98° |
| 2026-05-04 04:42 | -6.96765 | 110.33313 | 34893 ft | 460 kts | 98° |
| 2026-05-04 04:43 | -6.97606 | 110.39709 | 34884 ft | 461 kts | 92° |
| 2026-05-04 04:43 | -6.97751 | 110.46165 | 34888 ft | 462 kts | 90° |
| 2026-05-04 04:44 | -6.97781 | 110.52637 | 34889 ft | 463 kts | 90° |
| 2026-05-04 04:44 | -6.97854 | 110.59138 | 34316 ft | 469 kts | 90° |
| 2026-05-04 04:45 | -6.97905 | 110.62414 | 33687 ft | 467 kts | 90° |
| 2026-05-04 04:45 | -6.97962 | 110.65678 | 33087 ft | 465 kts | 90° |
| 2026-05-04 04:45 | -6.98022 | 110.68910 | 32613 ft | 460 kts | 90° |
| 2026-05-04 04:47 | -6.98356 | 110.87633 | 29719 ft | 435 kts | 91° |
| 2026-05-04 04:47 | -6.98407 | 110.90669 | 29242 ft | 431 kts | 91° |
| 2026-05-04 04:47 | -6.98456 | 110.93586 | 28764 ft | 427 kts | 91° |
| 2026-05-04 04:47 | -6.98502 | 110.96238 | 28326 ft | 424 kts | 91° |
| 2026-05-04 04:48 | -6.98546 | 110.98808 | 27921 ft | 420 kts | 90° |
| 2026-05-04 04:49 | -6.98731 | 111.09671 | 26130 ft | 408 kts | 91° |
| 2026-05-04 04:49 | -6.98775 | 111.12208 | 25711 ft | 405 kts | 91° |
| 2026-05-04 04:49 | -6.98810 | 111.14308 | 25355 ft | 402 kts | 90° |
| 2026-05-04 04:49 | -6.98844 | 111.16308 | 25035 ft | 400 kts | 91° |
| 2026-05-04 04:50 | -6.98874 | 111.18183 | 24725 ft | 398 kts | 90° |
| 2026-05-04 04:50 | -6.98905 | 111.20142 | 24400 ft | 395 kts | 91° |
| 2026-05-04 04:50 | -6.98943 | 111.22079 | 24084 ft | 393 kts | 91° |
| 2026-05-04 04:50 | -6.98979 | 111.24136 | 23724 ft | 391 kts | 91° |
| 2026-05-04 04:51 | -6.99011 | 111.26075 | 23410 ft | 389 kts | 91° |
| 2026-05-04 04:51 | -6.99045 | 111.28179 | 23073 ft | 386 kts | 91° |
| 2026-05-04 04:51 | -6.99081 | 111.30460 | 22694 ft | 384 kts | 91° |
| 2026-05-04 04:51 | -6.99119 | 111.32950 | 22278 ft | 381 kts | 91° |
| 2026-05-04 04:52 | -6.99161 | 111.35557 | 21841 ft | 378 kts | 91° |
| 2026-05-04 04:52 | -6.99205 | 111.38195 | 21404 ft | 375 kts | 91° |
| 2026-05-04 04:52 | -6.99247 | 111.40806 | 20966 ft | 372 kts | 91° |
| 2026-05-04 04:52 | -6.99545 | 111.43379 | 20519 ft | 370 kts | 103° |
| 2026-05-04 04:53 | -7.00223 | 111.45861 | 20112 ft | 366 kts | 106° |
| 2026-05-04 04:53 | -7.00956 | 111.48311 | 19684 ft | 364 kts | 107° |
| 2026-05-04 04:53 | -7.01689 | 111.50737 | 19262 ft | 362 kts | 107° |
| 2026-05-04 04:53 | -7.02409 | 111.53153 | 18833 ft | 359 kts | 106° |
| 2026-05-04 04:54 | -7.03111 | 111.55550 | 18411 ft | 357 kts | 106° |
| 2026-05-04 04:54 | -7.03801 | 111.57939 | 17992 ft | 355 kts | 106° |
| 2026-05-04 04:54 | -7.04211 | 111.59366 | 17739 ft | 354 kts | 106° |
| 2026-05-04 04:55 | -7.04674 | 111.60989 | 17456 ft | 352 kts | 105° |
| 2026-05-04 04:55 | -7.05344 | 111.63348 | 17040 ft | 349 kts | 105° |
| 2026-05-04 04:55 | -7.06018 | 111.65721 | 16620 ft | 347 kts | 105° |
| 2026-05-04 04:55 | -7.06669 | 111.68023 | 16211 ft | 345 kts | 105° |
| 2026-05-04 04:56 | -7.07333 | 111.70366 | 15798 ft | 342 kts | 105° |
| 2026-05-04 04:56 | -7.07974 | 111.72634 | 15393 ft | 341 kts | 105° |
| 2026-05-04 04:56 | -7.08588 | 111.74802 | 15020 ft | 339 kts | 105° |
| 2026-05-04 04:56 | -7.09136 | 111.76738 | 14667 ft | 336 kts | 105° |
| 2026-05-04 04:57 | -7.09776 | 111.79002 | 14234 ft | 336 kts | 105° |
| 2026-05-04 04:57 | -7.10414 | 111.81260 | 13834 ft | 334 kts | 105° |
| 2026-05-04 04:57 | -7.11046 | 111.83497 | 13436 ft | 332 kts | 105° |
| 2026-05-04 04:57 | -7.11679 | 111.85733 | 13041 ft | 331 kts | 105° |
| 2026-05-04 04:58 | -7.12305 | 111.87950 | 12731 ft | 326 kts | 105° |
| 2026-05-04 04:58 | -7.12915 | 111.90112 | 12593 ft | 316 kts | 105° |
| 2026-05-04 04:58 | -7.13509 | 111.92213 | 12449 ft | 308 kts | 105° |
| 2026-05-04 04:58 | -7.14086 | 111.94257 | 12311 ft | 300 kts | 105° |
| 2026-05-04 04:59 | -7.14653 | 111.96266 | 12192 ft | 297 kts | 105° |
| 2026-05-04 04:59 | -7.15221 | 111.98276 | 12077 ft | 301 kts | 105° |
| 2026-05-04 04:59 | -7.15602 | 111.99625 | 11988 ft | 304 kts | 106° |
| 2026-05-04 04:59 | -7.16595 | 112.02340 | 11509 ft | 312 kts | 113° |
| 2026-05-04 05:00 | -7.17469 | 112.04332 | 11178 ft | 310 kts | 114° |
| 2026-05-04 05:00 | -7.18065 | 112.05665 | 10962 ft | 308 kts | 114° |
| 2026-05-04 05:00 | -7.19782 | 112.09548 | 10374 ft | 302 kts | 114° |
| 2026-05-04 05:01 | -7.20616 | 112.11466 | 10108 ft | 298 kts | 113° |
| 2026-05-04 05:01 | -7.21429 | 112.13347 | 9815 ft | 295 kts | 113° |
| 2026-05-04 05:01 | -7.22043 | 112.14775 | 9585 ft | 293 kts | 113° |
| 2026-05-04 05:01 | -7.22848 | 112.16652 | 9309 ft | 290 kts | 113° |
| 2026-05-04 05:02 | -7.23643 | 112.18510 | 9010 ft | 289 kts | 113° |
| 2026-05-04 05:02 | -7.24333 | 112.20124 | 8752 ft | 287 kts | 113° |
| 2026-05-04 05:02 | -7.24994 | 112.21670 | 8504 ft | 286 kts | 113° |
| 2026-05-04 05:02 | -7.25776 | 112.23503 | 8222 ft | 283 kts | 113° |
| 2026-05-04 05:03 | -7.26552 | 112.25318 | 7923 ft | 281 kts | 113° |
| 2026-05-04 05:03 | -7.27324 | 112.27123 | 7637 ft | 279 kts | 113° |
| 2026-05-04 05:04 | -7.29596 | 112.32450 | 6778 ft | 273 kts | 111° |
| 2026-05-04 05:04 | -7.30131 | 112.34274 | 6498 ft | 271 kts | 102° |
| 2026-05-04 05:04 | -7.30491 | 112.36131 | 6216 ft | 269 kts | 101° |
| 2026-05-04 05:06 | -7.32846 | 112.48375 | 4836 ft | 220 kts | 102° |
| 2026-05-04 05:06 | -7.33195 | 112.49817 | 4721 ft | 206 kts | 105° |
| 2026-05-04 05:06 | -7.33519 | 112.51195 | 4506 ft | 199 kts | 102° |
| 2026-05-04 05:07 | -7.33777 | 112.52550 | 4304 ft | 196 kts | 101° |
| 2026-05-04 05:07 | -7.34008 | 112.53905 | 4097 ft | 195 kts | 99° |
| 2026-05-04 05:07 | -7.34223 | 112.55235 | 3889 ft | 190 kts | 99° |
| 2026-05-04 05:09 | -7.35866 | 112.65473 | 2338 ft | 178 kts | 98° |
| 2026-05-04 05:09 | -7.36050 | 112.66622 | 2128 ft | 168 kts | 99° |
| 2026-05-04 05:10 | -7.36210 | 112.67617 | 1937 ft | 158 kts | 98° |
| 2026-05-04 05:10 | -7.36379 | 112.68672 | 1725 ft | 153 kts | 98° |
| 2026-05-04 05:10 | -7.36547 | 112.69717 | 1523 ft | 150 kts | 98° |
| 2026-05-04 05:10 | -7.36712 | 112.70744 | 1329 ft | 148 kts | 97° |
| 2026-05-04 05:11 | -7.36875 | 112.71766 | 1141 ft | 149 kts | 97° |
| 2026-05-04 05:11 | -7.37040 | 112.72795 | 933 ft | 149 kts | 98° |
| 2026-05-04 05:11 | -7.37192 | 112.73805 | 765 ft | 146 kts | 96° |
| 2026-05-04 05:11 | -7.37331 | 112.74783 | 579 ft | 142 kts | 98° |
| 2026-05-04 05:12 | -7.37504 | 112.75765 | 360 ft | 144 kts | 98° |
| 2026-05-04 05:12 | -7.37663 | 112.76757 | 207 ft | 145 kts | 98° |
| 2026-05-04 05:12 | -7.37830 | 112.77737 | 32 ft | 139 kts | 98° |
| 2026-05-04 05:12 | -7.37957 | 112.78616 | 8 ft | 108 kts | 101° |
| 2026-05-04 05:13 | -7.38067 | 112.79210 | 12 ft | 65 kts | 99° |
| 2026-05-04 05:13 | -7.38115 | 112.79504 | 8 ft | 14 kts | 98° |
| 2026-05-04 05:13 | -7.38109 | 112.79585 | 8 ft | 7 kts | 76° |
| 2026-05-04 05:13 | -7.38092 | 112.79636 | 9 ft | 9 kts | 70° |
| 2026-05-04 05:14 | -7.38071 | 112.79694 | 8 ft | 9 kts | 70° |
| 2026-05-04 05:14 | -7.38050 | 112.79745 | 9 ft | 4 kts | 59° |
| 2026-05-04 05:14 | -7.38031 | 112.79768 | 8 ft | 4 kts | 45° |
| 2026-05-04 05:14 | -7.38008 | 112.79785 | 8 ft | 4 kts | 30° |
| 2026-05-04 05:15 | -7.37978 | 112.79786 | 10 ft | 5 kts | 355° |
| 2026-05-04 05:15 | -7.37931 | 112.79786 | 8 ft | 8 kts | 4° |
| 2026-05-04 05:15 | -7.37874 | 112.79793 | 10 ft | 8 kts | 9° |
| 2026-05-04 05:15 | -7.37808 | 112.79804 | 9 ft | 11 kts | 9° |
| 2026-05-04 05:16 | -7.37751 | 112.79810 | 8 ft | 6 kts | 347° |
| 2026-05-04 05:16 | -7.37730 | 112.79770 | 8 ft | 9 kts | 282° |
| 2026-05-04 05:16 | -7.37718 | 112.79696 | 9 ft | 11 kts | 279° |
| 2026-05-04 05:16 | -7.37705 | 112.79618 | 8 ft | 11 kts | 279° |
| 2026-05-04 05:17 | -7.37695 | 112.79550 | 8 ft | 9 kts | 279° |
| 2026-05-04 05:17 | -7.37657 | 112.79525 | 8 ft | 6 kts | 2° |
| 2026-05-04 05:17 | -7.37620 | 112.79530 | 8 ft | 4 kts | 9° |
| 2026-05-04 05:17 | -7.37611 | 112.79532 | 8 ft | 2 kts | 9° |
| 2026-05-04 05:18 | -7.37603 | 112.79533 | 8 ft | 1 kts | 9° |
| 2026-05-04 05:18 | -7.37602 | 112.79533 | 8 ft | 0 kts | 9° |